Time;durP1;ratioP1;P1;durP2;ratioP2;P2;SDS_P1;SDS_P2;PMS_P1;PMS_P2;Temp;Humidity;BMP_temperature;BMP_pressure;BME280_temperature;BME280_humidity;BME280_pressure;Samples;Min_cycle;Max_cycle;Signal;HPM_P1;HPM_P2
2023/11/03 00:00:19;;;;;;;6.30;0.70;;;;;;;13.09;89.79;97566.83;110762;1272;22193;-78
2023/11/03 00:03:08;;;;;;;4.20;0.60;;;;;;;13.11;89.72;97556.59;110675;1272;22863;-78
2023/11/03 00:05:38;;;;;;;4.10;0.60;;;;;;;13.11;89.76;97546.84;110714;1272;22752;-78
2023/11/03 00:08:06;;;;;;;6.90;0.50;;;;;;;13.12;89.54;97552.36;110730;1272;22217;-79
2023/11/03 00:10:37;;;;;;;4.00;0.60;;;;;;;13.14;89.51;97566.11;110712;1269;22416;-78
2023/11/03 00:13:16;;;;;;;3.00;0.60;;;;;;;13.15;89.35;97562.72;110473;1267;22182;-79
2023/11/03 00:15:44;;;;;;;3.50;0.60;;;;;;;13.17;89.29;97561.59;110430;1272;250781;-78
2023/11/03 00:18:12;;;;;;;3.60;0.60;;;;;;;13.18;89.20;97553.17;110704;1272;22200;-78
2023/11/03 00:20:44;;;;;;;3.40;0.70;;;;;;;13.20;89.10;97550.54;110733;1269;22175;-78
2023/11/03 00:23:12;;;;;;;4.20;0.60;;;;;;;13.21;89.02;97542.39;110722;1267;22322;-78
2023/11/03 00:25:40;;;;;;;3.60;0.60;;;;;;;13.23;88.96;97529.64;110723;1272;22240;-78
2023/11/03 00:28:08;;;;;;;3.00;0.50;;;;;;;13.24;88.99;97527.29;110708;1262;23033;-79
2023/11/03 00:30:38;;;;;;;3.20;0.80;;;;;;;13.25;88.75;97521.09;110737;1272;22178;-78
2023/11/03 00:33:06;;;;;;;5.40;0.70;;;;;;;13.26;88.63;97512.64;110730;1272;22703;-78
2023/11/03 00:35:35;;;;;;;5.60;0.70;;;;;;;13.28;88.61;97494.42;110736;1272;22187;-78
2023/11/03 00:38:03;;;;;;;1.70;0.50;;;;;;;13.29;88.57;97482.01;110744;1272;23086;-78
2023/11/03 00:40:32;;;;;;;2.60;0.50;;;;;;;13.29;88.66;97467.33;110728;1272;22364;-78
2023/11/03 00:43:02;;;;;;;4.40;0.70;;;;;;;13.29;88.66;97458.47;110678;1272;22364;-78
2023/11/03 00:45:31;;;;;;;3.80;0.50;;;;;;;13.27;88.87;97435.39;110728;1272;22215;-78
2023/11/03 00:47:59;;;;;;;4.30;0.50;;;;;;;13.26;89.01;97433.87;110741;1257;22421;-78
2023/11/03 00:50:27;;;;;;;2.10;0.50;;;;;;;13.25;89.05;97428.04;110764;1269;22271;-79
2023/11/03 00:52:55;;;;;;;3.20;0.50;;;;;;;13.23;89.21;97425.46;110505;1272;23022;-79
2023/11/03 00:55:23;;;;;;;2.60;0.60;;;;;;;13.22;89.16;97436.04;110695;1272;22558;-78
2023/11/03 00:57:52;;;;;;;2.00;0.50;;;;;;;13.23;89.23;97450.79;110490;1273;22965;-79
2023/11/03 01:00:23;;;;;;;1.80;0.40;;;;;;;13.23;89.15;97463.67;110627;1272;22155;-79
2023/11/03 01:02:51;;;;;;;2.90;0.40;;;;;;;13.24;89.18;97464.77;110644;1270;22386;-78
2023/11/03 01:05:21;;;;;;;3.30;0.50;;;;;;;13.26;88.95;97470.44;110675;1272;22435;-78
2023/11/03 01:07:52;;;;;;;2.40;0.60;;;;;;;13.28;89.03;97463.75;110735;1267;22959;-80
2023/11/03 01:10:22;;;;;;;6.10;0.70;;;;;;;13.30;89.04;97459.97;110690;1272;22220;-79
2023/11/03 01:12:52;;;;;;;3.90;0.40;;;;;;;13.31;88.92;97467.95;110720;1269;22183;-78
2023/11/03 01:15:21;;;;;;;3.70;0.40;;;;;;;13.33;88.90;97470.80;110620;1272;22154;-78
2023/11/03 01:17:52;;;;;;;;;;;;;;;13.36;88.93;97475.41;110738;1272;22391;-78
2023/11/03 01:20:27;;;;;;;2.50;0.40;;;;;;;13.39;89.05;97474.82;110508;1269;22195;-79
2023/11/03 01:22:55;;;;;;;5.40;0.60;;;;;;;13.42;88.92;97467.36;110646;1272;22208;-78
2023/11/03 01:25:24;;;;;;;5.30;0.40;;;;;;;13.44;89.11;97469.52;110698;1272;22148;-78
2023/11/03 01:27:53;;;;;;;3.30;0.60;;;;;;;13.45;89.10;97464.17;110725;1272;22723;-78
2023/11/03 01:30:21;;;;;;;2.50;0.50;;;;;;;13.47;89.19;97465.33;110682;1272;22645;-77
2023/11/03 01:32:52;;;;;;;3.40;0.60;;;;;;;13.48;89.23;97474.11;110712;1272;22381;-78
2023/11/03 01:35:21;;;;;;;3.80;0.40;;;;;;;13.49;89.49;97467.58;110736;1272;22179;-78
2023/11/03 01:37:53;;;;;;;3.00;0.60;;;;;;;13.48;89.58;97463.46;110730;1272;22695;-79
2023/11/03 01:40:21;;;;;;;3.70;0.50;;;;;;;13.47;89.80;97465.52;110643;1272;22150;-78
2023/11/03 01:42:52;;;;;;;4.30;0.50;;;;;;;13.45;90.07;97474.42;110726;1272;22836;-80
2023/11/03 01:45:21;;;;;;;2.10;0.40;;;;;;;13.43;90.33;97477.45;110685;1272;22943;-79
2023/11/03 01:47:49;;;;;;;3.00;0.80;;;;;;;13.41;90.42;97476.66;110727;1266;22160;-80
2023/11/03 01:50:25;;;;;;;2.80;0.50;;;;;;;13.38;90.62;97473.65;110741;1272;22633;-82
2023/11/03 01:52:54;;;;;;;3.50;0.60;;;;;;;13.37;90.78;97467.52;109797;1272;22525;-80
2023/11/03 01:55:25;;;;;;;5.00;0.60;;;;;;;13.35;91.00;97470.41;108512;1272;22602;-80
2023/11/03 01:57:57;;;;;;;2.90;0.50;;;;;;;13.32;91.10;97468.48;108615;1269;22568;-82
2023/11/03 02:00:27;;;;;;;2.20;0.40;;;;;;;13.30;91.08;97469.79;108684;1270;22531;-80
2023/11/03 02:02:56;;;;;;;2.20;0.40;;;;;;;13.28;91.25;97471.48;108716;1272;25282;-81
2023/11/03 02:05:27;;;;;;;4.70;0.90;;;;;;;13.27;91.17;97472.59;108587;1272;22526;-81
2023/11/03 02:07:55;;;;;;;;;;;;;;;13.25;91.50;97473.58;108709;1269;24187;-81
2023/11/03 02:10:34;;;;;;;1.50;0.40;;;;;;;13.22;91.85;97477.31;108755;1272;22535;-82
2023/11/03 02:13:05;;;;;;;3.80;0.50;;;;;;;13.19;92.05;97473.77;108713;1272;22567;-79
2023/11/03 02:15:33;;;;;;;3.20;0.50;;;;;;;13.16;92.40;97474.00;108994;1272;25380;-79
2023/11/03 02:18:03;;;;;;;6.00;0.60;;;;;;;13.12;92.52;97471.10;108033;1272;23535;-80
2023/11/03 02:20:34;;;;;;;4.50;0.70;;;;;;;13.09;92.90;97471.38;109036;1272;22844;-80
2023/11/03 02:23:03;;;;;;;7.40;0.60;;;;;;;13.04;93.19;97479.95;109158;1269;23335;-80
2023/11/03 02:25:32;;;;;;;4.90;0.70;;;;;;;12.99;93.63;97480.20;110764;1272;22398;-79
2023/11/03 02:28:03;;;;;;;5.80;0.60;;;;;;;12.95;93.99;97474.02;110763;1272;22159;-81
2023/11/03 02:30:31;;;;;;;6.60;0.60;;;;;;;12.89;94.54;97472.94;110819;1269;22178;-81
2023/11/03 02:33:02;;;;;;;3.20;0.60;;;;;;;12.84;94.79;97471.73;110802;1272;22288;-81
2023/11/03 02:35:30;;;;;;;3.20;0.70;;;;;;;12.80;94.93;97470.66;110817;1272;23008;-81
2023/11/03 02:37:59;;;;;;;2.40;0.60;;;;;;;12.76;95.39;97463.48;110857;1272;22391;-82
2023/11/03 02:40:27;;;;;;;4.90;0.60;;;;;;;12.74;95.26;97461.77;110844;1272;22143;-81
2023/11/03 02:42:58;;;;;;;7.60;0.70;;;;;;;12.72;95.31;97455.84;110742;1272;22219;-81
2023/11/03 02:45:27;;;;;;;3.80;0.70;;;;;;;12.72;95.53;97454.17;110756;1272;22160;-82
2023/11/03 02:47:57;;;;;;;6.10;0.90;;;;;;;12.70;95.71;97440.95;110755;1269;22215;-81
2023/11/03 02:50:31;;;;;;;;;;;;;;;12.66;96.02;97434.02;110775;1272;22402;-83
2023/11/03 02:53:09;;;;;;;8.10;1.60;;;;;;;12.61;96.32;97435.17;110802;1272;22497;-83
2023/11/03 02:55:38;;;;;;;2.70;0.80;;;;;;;12.58;96.24;97434.45;110308;1272;22530;-87
2023/11/03 02:58:08;;;;;;;4.50;0.80;;;;;;;12.56;96.49;97431.63;108598;1259;23027;-82
2023/11/03 03:00:39;;;;;;;4.40;1.10;;;;;;;12.52;96.66;97430.17;108759;1272;22483;-84
2023/11/03 03:03:08;;;;;;;2.50;0.60;;;;;;;12.49;96.68;97431.36;108414;1268;22537;-82
2023/11/03 03:05:37;;;;;;;;;;;;;;;12.45;96.93;97431.59;108577;1269;22517;-84
2023/11/03 03:08:08;;;;;;;4.80;0.70;;;;;;;12.42;97.08;97434.54;108411;1272;24743;-82
2023/11/03 03:10:36;;;;;;;6.60;1.00;;;;;;;12.39;97.35;97429.09;108605;1272;24202;-82
2023/11/03 03:13:09;;;;;;;9.50;1.00;;;;;;;12.38;97.25;97431.40;108487;1272;22555;-83
2023/11/03 03:15:39;;;;;;;6.40;1.10;;;;;;;12.39;97.41;97433.01;108726;1272;22897;-82
2023/11/03 03:18:11;;;;;;;9.70;1.10;;;;;;;12.36;97.66;97433.02;108762;1270;22563;-83
2023/11/03 03:20:39;;;;;;;5.00;1.10;;;;;;;12.34;97.75;97436.17;108878;1262;22642;-82
2023/11/03 03:23:12;;;;;;;6.80;1.00;;;;;;;12.32;97.83;97435.77;108922;1272;25451;-83
2023/11/03 03:25:44;;;;;;;7.60;1.40;;;;;;;12.32;97.92;97434.98;108812;1272;24170;-83
2023/11/03 03:28:19;;;;;;;7.20;1.30;;;;;;;12.30;98.02;97437.17;109035;1272;22479;-82
2023/11/03 03:30:51;;;;;;;5.10;1.20;;;;;;;12.28;98.31;97437.66;109445;1267;22313;-86
2023/11/03 03:33:23;;;;;;;3.70;1.00;;;;;;;12.23;98.48;97434.74;109902;1272;22671;-83
2023/11/03 03:35:56;;;;;;;4.60;1.30;;;;;;;12.19;98.54;97432.59;109534;1263;22534;-82
2023/11/03 03:38:25;;;;;;;5.30;1.10;;;;;;;12.18;98.42;97427.88;108641;1272;22569;-83
2023/11/03 03:40:54;;;;;;;8.30;1.10;;;;;;;12.18;98.53;97413.04;110743;1272;22635;-82
2023/11/03 03:43:23;;;;;;;8.70;1.30;;;;;;;12.17;98.76;97413.75;110532;1272;22166;-83
2023/11/03 03:45:51;;;;;;;9.40;1.60;;;;;;;12.14;98.84;97409.08;110534;1272;22422;-84
2023/11/03 03:48:22;;;;;;;6.00;1.30;;;;;;;12.12;99.12;97403.10;110631;1272;22170;-87
2023/11/03 03:50:59;;;;;;;7.60;1.30;;;;;;;12.10;99.21;97395.23;110836;1272;22574;-82
2023/11/03 03:53:30;;;;;;;5.00;1.30;;;;;;;12.09;99.35;97391.91;110722;1257;22199;-85
2023/11/03 03:56:01;;;;;;;5.40;1.40;;;;;;;12.07;99.33;97388.13;110748;1272;22169;-81
2023/11/03 03:58:28;;;;;;;;;;;;;;;12.07;99.43;97388.69;110785;1272;23110;-81
2023/11/03 04:00:57;;;;;;;6.10;1.20;;;;;;;12.06;99.46;97393.00;110748;1272;22418;-85
2023/11/03 04:03:26;;;;;;;7.20;1.40;;;;;;;12.05;99.53;97394.64;110537;1273;22747;-82
2023/11/03 04:05:55;;;;;;;6.00;1.50;;;;;;;12.06;99.49;97391.81;110728;1263;22377;-82
2023/11/03 04:08:26;;;;;;;7.90;1.60;;;;;;;12.08;99.54;97391.43;110801;1272;22161;-81
2023/11/03 04:11:01;;;;;;;9.30;1.70;;;;;;;12.11;99.48;97395.46;110786;1272;22407;-81
2023/11/03 04:13:31;;;;;;;6.20;1.50;;;;;;;12.12;99.58;97394.73;110728;1272;22933;-82
2023/11/03 04:15:59;;;;;;;7.30;2.10;;;;;;;12.14;99.37;97403.42;110786;1269;22191;-81
2023/11/03 04:18:28;;;;;;;9.70;1.70;;;;;;;12.16;99.45;97408.01;110729;1272;22997;-80
2023/11/03 04:20:56;;;;;;;4.20;1.40;;;;;;;12.18;99.65;97409.42;110729;1272;22737;-80
2023/11/03 04:23:24;;;;;;;7.10;1.40;;;;;;;12.19;99.68;97409.90;110748;1272;22280;-81
2023/11/03 04:25:53;;;;;;;5.10;1.50;;;;;;;12.22;99.69;97411.29;110774;1272;22162;-80
2023/11/03 04:28:22;;;;;;;7.30;1.60;;;;;;;12.26;99.68;97412.85;110741;1272;22209;-83
2023/11/03 04:30:50;;;;;;;9.00;1.70;;;;;;;12.27;99.68;97413.23;110780;1269;22277;-81
2023/11/03 04:33:20;;;;;;;8.90;1.80;;;;;;;12.28;99.76;97412.93;110710;1267;23159;-82
2023/11/03 04:35:49;;;;;;;9.40;1.90;;;;;;;12.27;99.78;97412.48;110649;1272;22208;-84
2023/11/03 04:38:17;;;;;;;6.90;1.60;;;;;;;12.26;99.86;97416.85;110769;1268;22200;-81
2023/11/03 04:40:46;;;;;;;9.70;1.40;;;;;;;12.24;99.93;97422.41;110767;1272;22957;-84
2023/11/03 04:43:14;;;;;;;8.40;1.60;;;;;;;12.23;99.98;97430.79;110761;1272;22225;-83
2023/11/03 04:45:44;;;;;;;5.00;1.30;;;;;;;12.21;99.99;97432.44;110705;1272;22365;-82
2023/11/03 04:48:17;;;;;;;5.90;1.20;;;;;;;12.18;100.00;97428.55;110725;1266;22320;-82
2023/11/03 04:50:49;;;;;;;4.50;0.90;;;;;;;12.18;100.00;97431.50;110759;1272;22886;-82
2023/11/03 04:53:21;;;;;;;5.40;1.20;;;;;;;12.18;100.00;97432.33;110767;1272;22164;-84
2023/11/03 04:55:50;;;;;;;8.00;1.20;;;;;;;12.18;100.00;97435.45;110736;1269;22175;-83
2023/11/03 04:58:21;;;;;;;5.60;1.30;;;;;;;12.18;100.00;97443.99;110787;1269;22327;-83
2023/11/03 05:00:54;;;;;;;5.10;1.00;;;;;;;12.17;100.00;97450.33;110683;1269;22196;-83
2023/11/03 05:03:23;;;;;;;7.40;1.00;;;;;;;12.17;100.00;97451.82;110694;1272;22189;-82
2023/11/03 05:05:52;;;;;;;3.30;0.70;;;;;;;12.15;100.00;97452.33;110767;1272;22143;-81
2023/11/03 05:08:20;;;;;;;6.00;0.80;;;;;;;12.11;100.00;97457.70;110689;1272;22213;-81
2023/11/03 05:10:50;;;;;;;6.30;0.80;;;;;;;12.07;100.00;97466.16;110797;1272;22758;-82
2023/11/03 05:13:20;;;;;;;4.50;0.90;;;;;;;12.01;100.00;97465.59;110760;1266;23056;-82
2023/11/03 05:15:48;;;;;;;;;;;;;;;11.94;99.85;97468.61;110825;1269;22523;-81
2023/11/03 05:18:17;;;;;;;4.50;1.00;;;;;;;11.88;99.90;97474.45;110769;1270;22226;-81
2023/11/03 05:20:46;;;;;;;4.60;0.90;;;;;;;11.81;99.96;97466.72;110715;1263;22255;-81
2023/11/03 05:23:14;;;;;;;4.00;0.90;;;;;;;11.75;99.89;97467.95;110765;1272;22325;-81
2023/11/03 05:25:44;;;;;;;5.60;0.90;;;;;;;11.70;99.84;97468.73;110727;1272;22241;-81
2023/11/03 05:28:22;;;;;;;3.10;0.70;;;;;;;11.66;99.77;97463.25;110712;1272;22173;-81
2023/11/03 05:30:52;;;;;;;2.20;0.60;;;;;;;11.61;99.84;97459.27;110719;1269;22216;-81
2023/11/03 05:33:20;;;;;;;2.60;0.60;;;;;;;11.56;99.76;97449.70;110725;1266;22126;-81
2023/11/03 05:35:51;;;;;;;4.10;0.80;;;;;;;11.52;99.81;97450.30;110702;1270;22167;-81
2023/11/03 05:38:20;;;;;;;3.30;0.70;;;;;;;11.47;99.74;97450.75;110710;1272;22984;-79
2023/11/03 05:40:48;;;;;;;2.10;0.60;;;;;;;11.41;100.00;97448.83;110745;1272;22950;-79
2023/11/03 05:43:17;;;;;;;1.80;0.50;;;;;;;11.37;99.99;97446.95;110816;1272;22178;-79
2023/11/03 05:45:45;;;;;;;2.50;0.40;;;;;;;11.32;99.96;97437.69;110765;1272;22270;-80
2023/11/03 05:48:13;;;;;;;3.60;0.60;;;;;;;11.27;100.00;97421.36;110777;1272;22194;-80
2023/11/03 05:50:42;;;;;;;2.10;0.40;;;;;;;11.23;100.00;97399.79;110805;1266;22212;-80
2023/11/03 05:53:14;;;;;;;3.70;0.70;;;;;;;11.20;100.00;97394.18;110720;1257;22444;-79
2023/11/03 05:55:42;;;;;;;1.70;0.40;;;;;;;11.18;100.00;97393.13;110577;1272;22220;-78
2023/11/03 05:58:10;;;;;;;3.30;0.60;;;;;;;11.17;100.00;97418.10;110790;1267;23026;-78
2023/11/03 06:00:39;;;;;;;3.70;0.90;;;;;;;11.14;100.00;97441.32;110785;1272;22283;-78
2023/11/03 06:03:07;;;;;;;4.90;0.80;;;;;;;11.10;100.00;97446.63;110744;1272;22331;-78
2023/11/03 06:05:36;;;;;;;5.40;1.10;;;;;;;11.09;100.00;97435.08;110651;1272;22180;-77
2023/11/03 06:08:05;;;;;;;4.80;1.20;;;;;;;11.12;100.00;97431.11;110769;1272;22717;-77
2023/11/03 06:10:34;;;;;;;6.50;1.50;;;;;;;11.17;100.00;97436.31;110745;1272;22247;-77
2023/11/03 06:13:02;;;;;;;6.30;1.50;;;;;;;11.22;100.00;97430.89;110764;1272;22990;-77
2023/11/03 06:15:30;;;;;;;8.40;2.50;;;;;;;11.26;100.00;97432.64;110610;1272;22206;-77
2023/11/03 06:17:59;;;;;;;19.50;8.00;;;;;;;11.29;99.99;97452.41;110785;1270;22201;-77
2023/11/03 06:20:27;;;;;;;19.90;7.80;;;;;;;11.29;100.00;97458.16;110776;1272;23069;-77
2023/11/03 06:22:57;;;;;;;21.20;7.60;;;;;;;11.30;99.95;97460.73;110488;1273;23162;-77
2023/11/03 06:25:25;;;;;;;30.20;10.30;;;;;;;11.29;100.00;97455.56;110714;1272;22297;-77
2023/11/03 06:27:53;;;;;;;29.40;12.30;;;;;;;11.30;99.98;97453.73;110719;1272;22262;-77
2023/11/03 06:30:21;;;;;;;24.90;9.50;;;;;;;11.33;100.00;97440.94;110699;1272;22230;-77
2023/11/03 06:32:51;;;;;;;18.90;5.80;;;;;;;11.35;100.00;97432.23;110758;1272;22480;-77
2023/11/03 06:35:19;;;;;;;9.60;2.70;;;;;;;11.37;100.00;97428.66;110776;1266;22326;-77
2023/11/03 06:37:48;;;;;;;9.00;2.40;;;;;;;11.41;100.00;97440.01;110777;1272;22153;-77
2023/11/03 06:40:16;;;;;;;8.60;1.60;;;;;;;11.44;99.99;97439.19;110752;1272;22699;-77
2023/11/03 06:42:44;;;;;;;6.40;1.40;;;;;;;11.46;100.00;97448.59;110738;1272;22473;-77
2023/11/03 06:45:12;;;;;;;6.80;1.30;;;;;;;11.47;100.00;97455.30;110764;1262;22528;-77
2023/11/03 06:47:41;;;;;;;6.00;1.50;;;;;;;11.49;99.99;97466.44;110757;1272;22181;-77
2023/11/03 06:50:10;;;;;;;7.00;1.30;;;;;;;11.49;100.00;97477.91;110695;1272;22355;-77
2023/11/03 06:52:38;;;;;;;3.90;1.10;;;;;;;11.48;100.00;97479.55;110754;1272;23061;-77
2023/11/03 06:55:07;;;;;;;7.30;1.50;;;;;;;11.48;99.95;97479.92;110796;1272;22311;-76
2023/11/03 06:57:35;;;;;;;7.00;1.80;;;;;;;11.49;100.00;97482.80;110636;1270;22217;-76
2023/11/03 07:00:09;;;;;;;7.60;1.80;;;;;;;11.48;100.00;97477.06;110765;1270;23129;-77
2023/11/03 07:02:38;;;;;;;6.40;1.20;;;;;;;11.48;100.00;97474.74;110705;1272;22694;-77
2023/11/03 07:05:09;;;;;;;11.60;2.80;;;;;;;11.42;99.97;97473.12;110710;1272;23240;-77
2023/11/03 07:07:39;;;;;;;6.90;2.20;;;;;;;11.35;99.97;97474.90;110583;1263;22151;-77
2023/11/03 07:10:10;;;;;;;9.30;2.20;;;;;;;11.30;100.00;97481.89;110766;1268;22426;-78
2023/11/03 07:12:38;;;;;;;8.50;2.10;;;;;;;11.29;100.00;97480.69;110789;1272;22196;-78
2023/11/03 07:15:10;;;;;;;9.00;2.70;;;;;;;11.30;100.00;97486.88;110835;1267;22333;-78
2023/11/03 07:17:39;;;;;;;16.20;5.60;;;;;;;11.30;100.00;97491.39;110579;1272;22162;-78
2023/11/03 07:20:11;;;;;;;18.90;6.10;;;;;;;11.30;100.00;97494.50;110769;1263;22199;-78
2023/11/03 07:22:39;;;;;;;13.40;5.10;;;;;;;11.25;100.00;97498.43;110783;1272;22390;-78
2023/11/03 07:25:08;;;;;;;14.00;3.80;;;;;;;11.21;100.00;97506.36;110767;1272;22193;-78
2023/11/03 07:27:37;;;;;;;13.00;3.00;;;;;;;11.20;100.00;97505.58;110713;1272;23457;-78
2023/11/03 07:30:09;;;;;;;11.30;3.20;;;;;;;11.22;100.00;97519.08;110817;1272;22159;-78
2023/11/03 07:32:40;;;;;;;9.20;2.00;;;;;;;11.27;100.00;97521.64;110821;1272;22680;-78
2023/11/03 07:35:11;;;;;;;10.20;2.70;;;;;;;11.32;100.00;97521.40;110899;1272;21767;-79
2023/11/03 07:37:42;;;;;;;12.30;3.40;;;;;;;11.35;100.00;97522.23;110813;1272;22164;-79
2023/11/03 07:40:14;;;;;;;8.60;2.50;;;;;;;11.37;100.00;97516.73;110856;1272;22362;-78
2023/11/03 07:42:44;;;;;;;8.70;2.00;;;;;;;11.38;100.00;97523.92;110592;1272;23019;-78
2023/11/03 07:45:13;;;;;;;13.20;4.60;;;;;;;11.41;100.00;97519.23;110720;1267;22890;-78
2023/11/03 07:47:42;;;;;;;18.90;6.10;;;;;;;11.44;100.00;97517.11;110777;1270;22227;-78
2023/11/03 07:50:11;;;;;;;21.50;9.40;;;;;;;11.46;100.00;97514.22;110790;1272;21724;-78
2023/11/03 07:52:39;;;;;;;20.10;8.20;;;;;;;11.48;100.00;97519.14;110754;1272;23045;-78
2023/11/03 07:55:11;;;;;;;15.30;6.90;;;;;;;11.49;100.00;97509.29;110759;1272;23065;-79
2023/11/03 07:57:40;;;;;;;16.70;5.70;;;;;;;11.51;100.00;97502.17;110689;1272;22551;-79
2023/11/03 08:00:12;;;;;;;14.80;3.90;;;;;;;11.53;100.00;97499.98;110772;1272;22352;-79
2023/11/03 08:02:41;;;;;;;12.00;3.00;;;;;;;11.53;100.00;97496.92;110810;1267;22159;-79
2023/11/03 08:05:18;;;;;;;13.20;4.10;;;;;;;11.53;100.00;97499.39;110723;1272;23166;-79
2023/11/03 08:07:48;;;;;;;8.30;2.70;;;;;;;11.52;100.00;97507.85;110782;1272;22981;-79
2023/11/03 08:10:22;;;;;;;11.40;3.30;;;;;;;11.51;100.00;97513.50;110763;1267;22195;-79
2023/11/03 08:12:53;;;;;;;9.80;2.90;;;;;;;11.52;100.00;97520.80;110766;1272;22427;-79
2023/11/03 08:15:21;;;;;;;8.20;2.50;;;;;;;11.53;100.00;97529.45;110751;1272;22195;-79
2023/11/03 08:17:50;;;;;;;8.80;2.40;;;;;;;11.49;100.00;97541.35;110755;1272;23021;-79
2023/11/03 08:20:21;;;;;;;5.50;1.90;;;;;;;11.42;100.00;97536.55;110778;1268;22208;-79
2023/11/03 08:22:51;;;;;;;6.50;1.90;;;;;;;11.36;100.00;97528.90;110761;1272;22277;-78
2023/11/03 08:25:20;;;;;;;6.20;1.80;;;;;;;11.33;100.00;97525.47;110785;1272;22660;-78
2023/11/03 08:27:48;;;;;;;9.40;2.30;;;;;;;11.31;100.00;97513.69;110738;1267;22167;-78
2023/11/03 08:30:18;;;;;;;10.40;2.30;;;;;;;11.31;100.00;97506.52;110582;1273;22422;-78
2023/11/03 08:32:49;;;;;;;9.30;2.80;;;;;;;11.32;100.00;97502.59;110732;1272;22211;-78
2023/11/03 08:35:17;;;;;;;;;;;;;;;11.33;100.00;97497.80;110794;1267;22439;-79
2023/11/03 08:37:45;;;;;;;17.50;5.90;;;;;;;11.29;100.00;97491.27;110777;1272;22279;-78
2023/11/03 08:40:16;;;;;;;17.10;5.10;;;;;;;11.25;100.00;97497.38;110753;1269;22174;-78
2023/11/03 08:42:44;;;;;;;12.20;4.50;;;;;;;11.20;100.00;97500.92;110777;1262;22216;-78
2023/11/03 08:45:13;;;;;;;15.20;3.80;;;;;;;11.15;100.00;97498.61;110762;1272;22400;-79
2023/11/03 08:47:41;;;;;;;10.80;2.90;;;;;;;11.08;100.00;97492.40;110632;1272;22282;-79
2023/11/03 08:50:11;;;;;;;7.40;1.90;;;;;;;11.05;100.00;97489.19;110766;1272;22347;-79
2023/11/03 08:52:42;;;;;;;9.50;2.50;;;;;;;11.05;100.00;97489.85;110780;1272;22545;-79
2023/11/03 08:55:13;;;;;;;9.40;2.90;;;;;;;11.06;100.00;97486.73;110696;1266;22169;-79
2023/11/03 08:57:42;;;;;;;8.00;2.20;;;;;;;11.06;100.00;97485.66;110779;1267;22190;-79
2023/11/03 09:00:15;;;;;;;10.30;2.70;;;;;;;11.05;100.00;97481.58;110780;1272;22406;-79
2023/11/03 09:02:44;;;;;;;10.70;2.70;;;;;;;11.05;100.00;97481.48;110741;1272;22205;-79
2023/11/03 09:05:14;;;;;;;12.10;2.60;;;;;;;11.08;100.00;97477.99;110775;1265;22343;-79
2023/11/03 09:07:45;;;;;;;12.10;2.90;;;;;;;11.13;100.00;97477.20;110550;1272;22489;-79
2023/11/03 09:10:15;;;;;;;9.20;2.40;;;;;;;11.13;100.00;97471.65;110616;1272;22973;-80
2023/11/03 09:12:43;;;;;;;11.60;3.00;;;;;;;11.14;100.00;97470.77;110756;1272;22185;-79
2023/11/03 09:15:14;;;;;;;13.10;4.10;;;;;;;11.14;100.00;97464.44;110808;1253;22212;-79
2023/11/03 09:17:46;;;;;;;12.40;3.80;;;;;;;11.13;100.00;97460.33;110809;1272;22289;-79
2023/11/03 09:20:17;;;;;;;9.50;2.60;;;;;;;11.12;100.00;97459.28;110782;1272;22209;-80
2023/11/03 09:22:47;;;;;;;9.90;2.50;;;;;;;11.14;100.00;97465.14;110821;1272;22174;-79
2023/11/03 09:25:16;;;;;;;9.70;2.50;;;;;;;11.15;100.00;97466.52;110784;1268;22553;-79
2023/11/03 09:27:46;;;;;;;8.20;2.30;;;;;;;11.15;100.00;97475.36;110802;1272;22237;-79
2023/11/03 09:30:16;;;;;;;11.70;3.10;;;;;;;11.16;100.00;97470.55;110712;1272;22177;-79
2023/11/03 09:32:47;;;;;;;9.30;2.50;;;;;;;11.15;100.00;97467.84;110803;1272;22879;-79
2023/11/03 09:35:17;;;;;;;10.10;3.00;;;;;;;11.13;100.00;97467.87;110797;1272;22169;-79
2023/11/03 09:37:50;;;;;;;9.00;2.90;;;;;;;11.15;100.00;97463.59;110540;1273;22338;-79
2023/11/03 09:40:23;;;;;;;12.90;3.40;;;;;;;11.18;100.00;97456.49;110679;1272;22223;-79
2023/11/03 09:42:56;;;;;;;10.20;4.10;;;;;;;11.22;100.00;97455.18;110778;1272;22156;-79
2023/11/03 09:45:27;;;;;;;13.50;3.70;;;;;;;11.21;100.00;97454.31;110799;1272;23312;-79
2023/11/03 09:47:58;;;;;;;11.00;3.50;;;;;;;11.19;100.00;97453.85;110797;1272;22146;-80
2023/11/03 09:50:27;;;;;;;12.40;4.10;;;;;;;11.20;100.00;97461.90;110825;1272;22220;-81
2023/11/03 09:53:05;;;;;;;11.60;3.50;;;;;;;11.23;100.00;97455.14;110771;1272;22339;-81
2023/11/03 09:55:41;;;;;;;9.10;3.10;;;;;;;11.22;100.00;97447.09;110728;1266;22948;-80
2023/11/03 09:58:09;;;;;;;10.60;2.60;;;;;;;11.21;100.00;97439.79;110784;1272;22189;-79
2023/11/03 10:00:40;;;;;;;13.80;3.50;;;;;;;11.22;100.00;97434.43;110780;1272;22158;-81
2023/11/03 10:03:09;;;;;;;9.20;3.60;;;;;;;11.24;100.00;97425.10;110743;1269;22142;-80
2023/11/03 10:05:38;;;;;;;10.40;3.30;;;;;;;11.24;100.00;97412.04;110811;1272;22184;-79
2023/11/03 10:08:11;;;;;;;9.30;2.90;;;;;;;11.25;100.00;97409.58;110535;1260;22369;-80
2023/11/03 10:10:39;;;;;;;11.50;3.10;;;;;;;11.26;100.00;97403.86;110751;1272;22421;-80
2023/11/03 10:13:10;;;;;;;12.20;3.20;;;;;;;11.24;100.00;97394.71;110752;1272;22329;-80
2023/11/03 10:15:40;;;;;;;13.50;3.80;;;;;;;11.25;100.00;97389.18;110680;1272;22222;-80
2023/11/03 10:18:09;;;;;;;14.30;4.80;;;;;;;11.25;100.00;97385.61;110825;1270;22836;-80
2023/11/03 10:20:44;;;;;;;13.60;4.50;;;;;;;11.24;100.00;97378.69;110813;1266;22930;-80
2023/11/03 10:23:14;;;;;;;15.50;4.50;;;;;;;11.25;100.00;97372.02;110772;1272;22340;-80
2023/11/03 10:25:47;;;;;;;13.10;4.00;;;;;;;11.24;100.00;97362.30;110799;1272;22260;-81
2023/11/03 10:28:19;;;;;;;12.10;3.70;;;;;;;11.25;100.00;97357.05;110790;1272;22198;-81
2023/11/03 10:30:55;;;;;;;13.90;4.70;;;;;;;11.23;100.00;97356.63;110804;1266;22881;-80
2023/11/03 10:33:27;;;;;;;11.70;4.30;;;;;;;11.22;100.00;97362.45;110785;1272;22956;-80
2023/11/03 10:36:01;;;;;;;14.90;4.40;;;;;;;11.20;100.00;97362.16;110775;1268;23081;-80
2023/11/03 10:38:33;;;;;;;10.90;4.00;;;;;;;11.20;100.00;97355.54;110735;1272;22187;-81
2023/11/03 10:41:07;;;;;;;10.00;3.70;;;;;;;11.20;100.00;97351.03;110766;1270;22378;-81
2023/11/03 10:43:40;;;;;;;15.30;5.20;;;;;;;11.20;100.00;97347.68;110745;1268;22422;-81
2023/11/03 10:46:18;;;;;;;13.10;4.70;;;;;;;11.20;100.00;97357.32;110739;1272;22344;-80
2023/11/03 10:48:52;;;;;;;14.10;3.90;;;;;;;11.20;100.00;97359.22;110796;1257;22213;-80
2023/11/03 10:51:25;;;;;;;10.10;4.00;;;;;;;11.18;100.00;97363.27;110810;1272;22276;-81
2023/11/03 10:54:05;;;;;;;12.40;3.90;;;;;;;11.17;100.00;97365.10;110582;1272;22219;-80
2023/11/03 10:56:37;;;;;;;11.80;4.00;;;;;;;11.13;100.00;97355.21;110730;1267;23076;-80
2023/11/03 10:59:06;;;;;;;;;;;;;;;11.07;100.00;97347.33;110831;1272;23198;-80
2023/11/03 11:01:41;;;;;;;10.20;3.50;;;;;;;11.02;100.00;97347.71;110758;1272;22336;-79
2023/11/03 11:04:16;;;;;;;8.70;2.50;;;;;;;10.96;100.00;97344.34;110740;1270;22165;-80
2023/11/03 11:06:48;;;;;;;10.50;3.40;;;;;;;10.93;100.00;97341.84;110835;1269;22421;-79
2023/11/03 11:09:24;;;;;;;11.60;3.30;;;;;;;10.93;100.00;97338.29;110786;1272;22180;-79
2023/11/03 11:11:52;;;;;;;12.80;3.70;;;;;;;10.91;100.00;97332.55;110512;1272;22285;-80
2023/11/03 11:14:26;;;;;;;11.40;3.10;;;;;;;10.91;100.00;97334.92;110700;1272;22286;-80
2023/11/03 11:16:55;;;;;;;11.20;2.80;;;;;;;10.89;100.00;97330.02;110788;1272;22360;-80
2023/11/03 11:19:33;;;;;;;13.00;2.90;;;;;;;10.88;100.00;97325.25;110743;1267;23096;-79
2023/11/03 11:22:07;;;;;;;12.70;3.60;;;;;;;10.86;100.00;97322.15;110666;1272;22264;-79
2023/11/03 11:24:36;;;;;;;14.90;4.50;;;;;;;10.87;100.00;97315.27;110799;1256;22222;-79
2023/11/03 11:27:20;;;;;;;12.90;3.80;;;;;;;10.87;100.00;97301.72;110780;1272;22224;-79
2023/11/03 11:29:50;;;;;;;13.40;3.50;;;;;;;10.85;100.00;97296.39;110766;1269;22362;-78
2023/11/03 11:32:26;;;;;;;15.70;4.30;;;;;;;10.85;100.00;97292.23;110779;1272;22236;-78